Time;durP1;ratioP1;P1;durP2;ratioP2;P2;SDS_P1;SDS_P2;PMS_P1;PMS_P2;Temp;Humidity;BMP_temperature;BMP_pressure;BME280_temperature;BME280_humidity;BME280_pressure;Samples;Min_cycle;Max_cycle;Signal;HPM_P1;HPM_P2
2024/03/31 14:04:29;;;;;;;7.53;3.58;;;;;;;23.71;29.29;96387.00;7237508;19;20081;-55
2024/03/31 14:06:55;;;;;;;9.20;3.47;;;;;;;23.71;30.42;96391.47;7361385;19;20018;-53
2024/03/31 14:09:20;;;;;;;3.50;2.88;;;;;;;23.82;30.76;96399.34;7425059;19;20002;-56
2024/03/31 14:11:46;;;;;;;8.68;2.80;;;;;;;23.73;29.85;96395.72;7425743;19;20009;-56
2024/03/31 14:14:11;;;;;;;4.13;1.50;;;;;;;23.60;30.17;96398.66;7284029;19;20010;-52
2024/03/31 14:16:37;;;;;;;8.32;2.30;;;;;;;23.47;29.77;96388.31;7429699;19;20015;-51
2024/03/31 14:19:02;;;;;;;5.47;2.10;;;;;;;23.73;31.36;96406.38;7429656;19;20007;-52
2024/03/31 14:21:28;;;;;;;10.57;2.42;;;;;;;23.66;30.79;96407.91;7429397;19;20006;-54
2024/03/31 14:23:53;;;;;;;5.13;2.17;;;;;;;23.64;31.75;96404.56;7428108;19;20465;-56
2024/03/31 14:26:19;;;;;;;7.50;2.00;;;;;;;23.44;31.17;96411.75;7430280;19;20058;-55
2024/03/31 14:28:45;;;;;;;9.38;2.63;;;;;;;23.48;31.62;96423.84;7430512;19;20410;-54
2024/03/31 14:31:10;;;;;;;10.70;2.17;;;;;;;23.36;31.32;96423.13;7430481;19;20016;-56
2024/03/31 14:33:36;;;;;;;11.30;2.58;;;;;;;23.48;31.85;96418.53;7430321;19;19998;-56
2024/03/31 14:36:01;;;;;;;11.73;2.20;;;;;;;23.38;31.43;96421.19;7430191;19;20009;-54
2024/03/31 14:38:27;;;;;;;6.82;2.40;;;;;;;23.57;31.07;96414.97;7430222;19;19995;-53
2024/03/31 14:40:53;;;;;;;6.57;2.10;;;;;;;23.79;31.86;96415.66;7430141;19;20044;-56
2024/03/31 14:43:18;;;;;;;8.00;2.45;;;;;;;23.70;31.31;96412.00;7428656;19;20002;-56
2024/03/31 14:45:44;;;;;;;7.45;2.50;;;;;;;23.70;30.84;96405.81;7430485;19;20010;-54
2024/03/31 14:48:10;;;;;;;9.48;2.50;;;;;;;23.69;31.83;96398.81;7430006;19;20002;-54
2024/03/31 14:50:35;;;;;;;7.47;2.15;;;;;;;23.66;31.43;96405.25;7430104;19;19999;-54
2024/03/31 14:53:01;;;;;;;10.40;2.80;;;;;;;23.68;31.40;96400.63;7429998;19;20005;-58
2024/03/31 14:55:28;;;;;;;6.22;2.03;;;;;;;23.54;31.55;96404.56;7429948;19;20346;-54
2024/03/31 14:57:53;;;;;;;10.02;2.72;;;;;;;23.57;31.66;96395.47;7429786;19;20026;-55
2024/03/31 15:00:19;;;;;;;10.05;2.30;;;;;;;23.42;32.42;96403.91;7427897;19;20090;-52
2024/03/31 15:02:45;;;;;;;7.13;2.20;;;;;;;23.42;32.21;96393.22;7426596;19;20023;-56
2024/03/31 15:05:17;;;;;;;8.40;2.15;;;;;;;23.47;32.05;96379.44;7429153;19;20014;-57
2024/03/31 15:07:44;;;;;;;9.85;2.47;;;;;;;23.43;32.40;96384.25;7428091;19;20034;-57
2024/03/31 15:10:11;;;;;;;8.40;2.40;;;;;;;23.56;32.79;96388.41;7429676;19;20006;-58
2024/03/31 15:12:37;;;;;;;12.52;2.38;;;;;;;23.53;32.23;96386.03;7429755;19;20460;-58
2024/03/31 15:15:03;;;;;;;8.60;2.30;;;;;;;23.70;32.08;96396.00;7410354;19;20010;-55
2024/03/31 15:17:30;;;;;;;7.47;2.65;;;;;;;23.63;32.50;96394.88;7400717;19;20017;-55
2024/03/31 15:19:55;;;;;;;8.68;2.60;;;;;;;23.65;32.79;96392.06;7400212;19;19998;-54
2024/03/31 15:22:22;;;;;;;10.88;2.45;;;;;;;23.46;33.14;96388.44;7399659;19;20006;-56
2024/03/31 15:24:54;;;;;;;12.63;2.63;;;;;;;23.32;33.53;96379.03;7400083;19;20036;-52
2024/03/31 15:27:19;;;;;;;9.48;2.85;;;;;;;23.34;33.50;96369.06;7400074;19;20362;-59
2024/03/31 15:29:45;;;;;;;7.95;2.35;;;;;;;23.40;34.21;96373.00;7399900;19;20453;-55
2024/03/31 15:32:11;;;;;;;11.30;2.58;;;;;;;23.43;33.50;96378.06;7398466;19;20062;-57
2024/03/31 15:34:37;;;;;;;7.47;2.90;;;;;;;23.48;33.08;96373.97;7400281;19;20087;-55
2024/03/31 15:37:03;;;;;;;7.28;2.58;;;;;;;23.51;33.35;96366.69;7399649;19;20392;-57
2024/03/31 15:39:29;;;;;;;12.27;3.70;;;;;;;23.37;34.15;96368.81;7399873;19;20470;-59
2024/03/31 15:41:56;;;;;;;9.05;3.13;;;;;;;23.33;34.62;96373.53;7399933;19;20036;-54
2024/03/31 15:44:22;;;;;;;13.50;2.75;;;;;;;23.12;35.33;96375.53;7397130;19;20011;-54
2024/03/31 15:46:47;;;;;;;9.95;3.17;;;;;;;23.14;35.17;96381.59;7399798;19;20000;-55
2024/03/31 15:49:13;;;;;;;13.57;3.05;;;;;;;23.07;35.62;96378.63;7399255;19;20015;-50
2024/03/31 15:51:39;;;;;;;8.30;2.47;;;;;;;22.78;36.72;96382.16;7399086;19;20036;-59
2024/03/31 15:54:04;;;;;;;9.93;2.70;;;;;;;22.74;36.63;96380.72;7399198;19;20028;-57
2024/03/31 15:56:30;;;;;;;7.60;3.08;;;;;;;22.76;36.16;96376.97;7399105;19;20003;-55
2024/03/31 15:58:56;;;;;;;6.85;2.50;;;;;;;22.68;35.84;96369.66;7398778;19;19995;-54
2024/03/31 16:01:23;;;;;;;10.70;2.97;;;;;;;22.69;35.95;96360.66;7398854;19;20500;-57
2024/03/31 16:03:48;;;;;;;11.13;2.67;;;;;;;22.59;36.13;96363.31;7396672;19;19999;-55
2024/03/31 16:06:14;;;;;;;7.47;2.60;;;;;;;22.51;36.60;96359.63;7398949;19;20341;-53
2024/03/31 16:08:40;;;;;;;10.80;2.72;;;;;;;22.25;37.00;96376.97;7398616;19;20468;-60
2024/03/31 16:11:06;;;;;;;7.97;2.85;;;;;;;22.16;37.63;96380.44;7398522;19;20068;-59
2024/03/31 16:13:32;;;;;;;12.60;3.05;;;;;;;21.84;39.21;96372.47;7398866;19;20006;-56
2024/03/31 16:16:00;;;;;;;11.13;3.47;;;;;;;21.00;42.69;96379.47;7398300;19;20457;-55
2024/03/31 16:18:27;;;;;;;10.32;3.05;;;;;;;20.73;42.70;96377.25;7398778;19;20034;-52
2024/03/31 16:20:52;;;;;;;17.98;3.83;;;;;;;20.38;44.64;96379.16;7398299;19;20505;-53
2024/03/31 16:23:18;;;;;;;20.55;4.10;;;;;;;19.93;46.43;96380.88;7396920;19;20465;-54
2024/03/31 16:25:47;;;;;;;15.63;4.18;;;;;;;20.02;45.65;96366.88;7396435;19;20468;-57
2024/03/31 16:28:13;;;;;;;11.13;2.85;;;;;;;19.70;46.20;96367.59;7397550;19;20065;-55
2024/03/31 16:30:42;;;;;;;8.65;2.88;;;;;;;19.30;46.93;96366.22;7397853;19;19999;-56
2024/03/31 16:33:10;;;;;;;9.00;2.97;;;;;;;19.25;47.44;96358.63;7397687;19;20355;-58
2024/03/31 16:35:36;;;;;;;7.97;2.92;;;;;;;18.77;48.84;96378.06;7397625;19;19998;-54
2024/03/31 16:38:02;;;;;;;12.77;2.75;;;;;;;18.56;49.97;96376.88;7397620;19;19994;-56
2024/03/31 16:40:29;;;;;;;11.43;3.90;;;;;;;18.33;49.52;96383.84;7397648;19;19995;-52
2024/03/31 16:42:55;;;;;;;13.45;3.00;;;;;;;18.22;49.88;96383.78;7396798;19;20467;-54
2024/03/31 16:45:21;;;;;;;11.25;2.65;;;;;;;18.14;50.03;96387.81;7397393;19;20009;-55
2024/03/31 16:47:46;;;;;;;10.32;3.17;;;;;;;17.74;51.48;96386.16;7397303;19;19995;-53
2024/03/31 16:50:12;;;;;;;10.93;3.28;;;;;;;17.68;50.98;96384.78;7397210;19;20475;-54
2024/03/31 16:52:39;;;;;;;12.73;2.80;;;;;;;17.64;51.21;96385.09;7397114;19;20002;-58
2024/03/31 16:55:05;;;;;;;10.18;2.95;;;;;;;17.55;51.77;96386.59;7397468;19;20042;-56
2024/03/31 16:57:31;;;;;;;11.40;2.80;;;;;;;17.17;52.58;96386.44;7397036;19;20007;-59
2024/03/31 16:59:57;;;;;;;10.75;2.30;;;;;;;17.09;53.34;96388.75;7397336;19;20022;-51
2024/03/31 17:02:24;;;;;;;14.95;3.45;;;;;;;16.92;53.13;96395.97;7396214;19;20388;-52
2024/03/31 17:04:50;;;;;;;9.60;2.63;;;;;;;16.86;53.63;96396.38;7396762;19;20014;-56
2024/03/31 17:07:17;;;;;;;14.85;2.97;;;;;;;16.57;54.09;96409.69;7396679;19;20011;-55
2024/03/31 17:09:43;;;;;;;11.30;2.70;;;;;;;16.41;54.82;96404.56;7396636;19;20018;-59
2024/03/31 17:12:09;;;;;;;15.25;3.28;;;;;;;16.24;55.58;96406.47;7396887;19;19995;-56
2024/03/31 17:14:35;;;;;;;16.58;3.35;;;;;;;16.26;55.41;96412.47;7396338;19;20011;-54
2024/03/31 17:17:05;;;;;;;13.65;2.90;;;;;;;16.12;56.78;96418.66;7396344;19;20002;-56
2024/03/31 17:19:32;;;;;;;9.00;2.88;;;;;;;15.49;57.88;96418.88;7396844;19;20337;-55
2024/03/31 17:21:59;;;;;;;14.18;3.10;;;;;;;15.65;57.56;96417.94;7396183;19;20073;-55
2024/03/31 17:24:26;;;;;;;9.90;2.80;;;;;;;15.37;58.65;96424.88;7394425;19;20026;-56
2024/03/31 17:26:51;;;;;;;13.25;3.08;;;;;;;15.49;58.25;96421.53;7396428;19;20326;-54
2024/03/31 17:29:17;;;;;;;15.60;4.25;;;;;;;15.47;58.47;96428.66;7395956;19;20002;-56
2024/03/31 17:31:43;;;;;;;18.63;3.50;;;;;;;15.30;58.62;96434.94;7394236;19;19994;-54
2024/03/31 17:34:09;;;;;;;12.98;2.88;;;;;;;15.33;58.53;96433.91;7395813;19;20361;-55
2024/03/31 17:36:39;;;;;;;9.45;2.90;;;;;;;15.19;59.69;96429.44;7395892;19;19999;-54
2024/03/31 17:39:05;;;;;;;10.07;3.67;;;;;;;15.18;59.63;96448.81;7395091;19;20341;-57
2024/03/31 17:41:35;;;;;;;12.32;3.10;;;;;;;14.97;59.89;96443.88;7395703;19;20022;-55
2024/03/31 17:44:01;;;;;;;13.10;3.38;;;;;;;14.91;60.24;96443.25;7394147;19;19999;-55
2024/03/31 17:46:28;;;;;;;9.00;2.75;;;;;;;14.96;60.19;96452.72;7395452;19;20010;-49
2024/03/31 17:48:55;;;;;;;14.35;3.20;;;;;;;15.01;59.58;96451.50;7395342;19;20022;-59
2024/03/31 17:51:25;;;;;;;15.52;3.00;;;;;;;14.89;60.86;96458.31;7395290;19;19999;-53
2024/03/31 17:53:52;;;;;;;18.65;3.45;;;;;;;14.83;60.79;96461.31;7395233;19;20077;-59
2024/03/31 17:56:19;;;;;;;18.83;2.72;;;;;;;14.57;62.37;96460.09;7395147;19;20003;-55
2024/03/31 17:58:49;;;;;;;10.60;3.03;;;;;;;14.53;61.70;96459.41;7395012;19;20070;-54
2024/03/31 18:01:17;;;;;;;21.13;3.22;;;;;;;14.85;59.98;96458.56;7395067;19;19998;-55
2024/03/31 18:03:45;;;;;;;14.07;2.92;;;;;;;14.78;60.20;96463.34;7393181;19;20007;-51
2024/03/31 18:06:13;;;;;;;16.02;3.42;;;;;;;14.70;60.67;96457.63;7394863;19;20338;-54
2024/03/31 18:08:39;;;;;;;9.73;2.60;;;;;;;14.60;60.57;96459.94;7394897;19;20010;-57
2024/03/31 18:11:07;;;;;;;15.55;3.80;;;;;;;14.18;62.86;96459.56;7394862;19;20019;-56
2024/03/31 18:13:33;;;;;;;12.48;3.13;;;;;;;14.09;62.83;96453.03;7394717;19;20006;-55
2024/03/31 18:16:03;;;;;;;11.38;3.13;;;;;;;14.19;62.38;96463.88;7394669;19;20351;-53
2024/03/31 18:18:34;;;;;;;17.83;3.97;;;;;;;13.74;64.68;96459.22;7394628;19;20006;-52
2024/03/31 18:21:17;;;;;;;10.07;2.78;;;;;;;13.28;67.16;96463.25;7394486;19;20010;-56
2024/03/31 18:23:47;;;;;;;13.73;3.00;;;;;;;13.73;65.13;96463.59;7393227;19;19995;-55
2024/03/31 18:26:15;;;;;;;8.57;2.67;;;;;;;13.79;65.38;96466.84;7394404;19;20003;-48
2024/03/31 18:28:43;;;;;;;20.45;3.83;;;;;;;13.77;65.34;96465.16;7394448;19;20074;-54
2024/03/31 18:31:09;;;;;;;10.70;2.70;;;;;;;13.72;64.63;96464.53;7394348;19;19999;-59
2024/03/31 18:33:37;;;;;;;15.45;3.30;;;;;;;14.30;61.91;96466.78;7394281;19;20005;-59
2024/03/31 18:36:09;;;;;;;14.98;3.05;;;;;;;13.56;65.50;96467.13;7394158;19;20011;-53
2024/03/31 18:38:35;;;;;;;16.92;3.22;;;;;;;14.12;62.83;96472.09;7394233;19;20005;-55
2024/03/31 18:41:02;;;;;;;14.48;2.97;;;;;;;14.32;61.84;96464.91;7394026;19;20473;-56
2024/03/31 18:43:35;;;;;;;9.93;2.67;;;;;;;13.97;63.44;96458.00;7392688;19;20005;-56
2024/03/31 18:46:02;;;;;;;14.80;3.75;;;;;;;13.85;63.98;96462.13;7393955;19;20007;-48
2024/03/31 18:48:29;;;;;;;17.30;3.50;;;;;;;13.67;64.64;96465.72;7393801;19;19999;-55
2024/03/31 18:50:58;;;;;;;14.80;2.92;;;;;;;13.83;63.71;96468.38;7399750;19;20003;-58
2024/03/31 18:53:24;;;;;;;14.23;3.95;;;;;;;14.19;61.64;96467.38;7401117;19;20003;-57
2024/03/31 18:55:56;;;;;;;13.10;3.10;;;;;;;13.79;63.81;96466.84;7401182;19;20036;-52
2024/03/31 18:58:24;;;;;;;10.35;2.97;;;;;;;13.56;64.66;96464.50;7400921;19;20025;-56
2024/03/31 19:00:53;;;;;;;9.25;2.60;;;;;;;13.44;64.78;96460.69;7400812;19;20369;-55
2024/03/31 19:03:20;;;;;;;12.35;3.35;;;;;;;13.56;64.63;96461.00;7398934;19;20009;-56
2024/03/31 19:05:46;;;;;;;16.65;3.30;;;;;;;13.43;65.01;96461.63;7400757;19;20006;-52
2024/03/31 19:08:12;;;;;;;10.30;2.85;;;;;;;13.59;64.47;96468.72;7400673;19;20006;-56
2024/03/31 19:10:38;;;;;;;14.80;3.45;;;;;;;14.23;62.13;96475.94;7400513;19;20480;-55
2024/03/31 19:13:04;;;;;;;12.40;3.05;;;;;;;14.00;62.62;96478.03;7396732;19;20003;-55
2024/03/31 19:15:32;;;;;;;12.23;3.08;;;;;;;13.27;65.48;96480.78;7400515;19;20488;-58
2024/03/31 19:17:58;;;;;;;16.58;3.47;;;;;;;13.20;65.88;96483.78;7400322;19;20009;-55
2024/03/31 19:20:24;;;;;;;10.50;2.90;;;;;;;13.31;65.99;96485.88;7400227;19;20003;-56
2024/03/31 19:22:50;;;;;;;12.40;3.00;;;;;;;13.31;65.90;96492.00;7399265;19;20351;-52
2024/03/31 19:25:17;;;;;;;14.98;3.13;;;;;;;13.84;63.99;96499.88;7400233;19;20003;-54
2024/03/31 19:27:46;;;;;;;14.15;3.10;;;;;;;13.63;64.38;96494.78;7400054;19;20424;-52
2024/03/31 19:30:12;;;;;;;12.65;3.05;;;;;;;13.49;64.83;96478.84;7399864;19;19999;-54
2024/03/31 19:32:38;;;;;;;16.95;3.92;;;;;;;13.15;66.07;96484.00;7399730;19;20022;-57
2024/03/31 19:35:05;;;;;;;16.63;3.45;;;;;;;13.31;65.84;96478.00;7399673;19;20023;-57
2024/03/31 19:37:31;;;;;;;10.95;2.85;;;;;;;13.73;63.90;96484.63;7398515;19;20063;-55
2024/03/31 19:39:58;;;;;;;11.43;3.83;;;;;;;13.12;66.56;96476.25;7399581;19;19999;-55
2024/03/31 19:42:24;;;;;;;9.70;3.00;;;;;;;12.99;67.02;96487.38;7399099;19;20343;-57
2024/03/31 19:44:51;;;;;;;19.75;3.60;;;;;;;13.09;67.18;96489.53;7399509;19;19998;-58
2024/03/31 19:47:17;;;;;;;10.43;3.10;;;;;;;12.97;66.96;96489.22;7399465;19;20028;-56
2024/03/31 19:49:44;;;;;;;15.70;4.10;;;;;;;12.85;67.43;96488.03;7399220;19;20026;-55
2024/03/31 19:52:15;;;;;;;14.30;2.95;;;;;;;12.64;68.42;96496.03;7399468;19;20337;-56
2024/03/31 19:54:41;;;;;;;18.60;3.33;;;;;;;12.59;69.00;96487.53;7399255;19;20010;-55
2024/03/31 19:57:08;;;;;;;16.52;3.17;;;;;;;12.62;69.74;96500.47;7398989;19;20035;-55
2024/03/31 19:59:34;;;;;;;11.18;3.03;;;;;;;12.58;69.63;96504.19;7398892;19;20472;-55
2024/03/31 20:02:00;;;;;;;11.35;2.90;;;;;;;12.60;69.98;96498.84;7398978;19;20039;-58
2024/03/31 20:04:26;;;;;;;11.68;2.72;;;;;;;12.37;71.08;96491.13;7396346;19;19998;-52
2024/03/31 20:06:55;;;;;;;11.70;3.42;;;;;;;12.26;70.59;96496.88;7398997;19;20414;-57
2024/03/31 20:09:22;;;;;;;11.70;3.75;;;;;;;12.35;70.67;96495.63;7398699;19;20034;-55
2024/03/31 20:11:48;;;;;;;10.63;3.25;;;;;;;12.46;69.84;96497.72;7398657;19;20006;-55
2024/03/31 20:14:14;;;;;;;8.77;3.75;;;;;;;12.23;70.87;96489.16;7398483;19;19999;-57
2024/03/31 20:16:41;;;;;;;15.98;3.85;;;;;;;12.21;71.29;96490.13;7398406;19;19995;-56
2024/03/31 20:19:08;;;;;;;11.38;2.92;;;;;;;12.32;71.33;96493.13;7398223;19;19994;-54
2024/03/31 20:21:35;;;;;;;17.60;3.47;;;;;;;12.17;72.11;96491.19;7398169;19;19995;-51
2024/03/31 20:24:01;;;;;;;15.27;3.40;;;;;;;12.19;71.61;96489.38;7396354;19;19998;-57
2024/03/31 20:26:27;;;;;;;19.27;3.38;;;;;;;12.22;71.23;96499.72;7398023;19;20034;-54
2024/03/31 20:28:53;;;;;;;15.48;3.67;;;;;;;12.27;71.56;96495.09;7398089;19;20002;-56
2024/03/31 20:31:19;;;;;;;17.30;3.35;;;;;;;12.13;71.80;96491.34;7398015;19;20002;-56
2024/03/31 20:33:45;;;;;;;15.95;3.00;;;;;;;12.23;70.92;96498.78;7397748;19;19995;-56
2024/03/31 20:36:12;;;;;;;9.93;3.42;;;;;;;12.05;72.05;96489.94;7397758;19;20033;-58
2024/03/31 20:38:38;;;;;;;12.63;2.92;;;;;;;11.86;72.68;96488.16;7397674;19;20500;-51
2024/03/31 20:41:06;;;;;;;16.92;3.58;;;;;;;11.77;73.41;96493.78;7396296;19;20508;-57
2024/03/31 20:43:33;;;;;;;13.48;3.42;;;;;;;11.99;72.32;96489.31;7396426;19;20386;-55
2024/03/31 20:46:04;;;;;;;11.23;3.13;;;;;;;12.14;71.23;96492.19;7397854;19;20002;-52
2024/03/31 20:48:30;;;;;;;16.58;3.55;;;;;;;12.16;71.46;96498.19;7397835;19;20069;-53
2024/03/31 20:51:07;;;;;;;14.48;3.88;;;;;;;12.07;72.93;96494.22;7397617;19;20006;-54
2024/03/31 20:53:34;;;;;;;17.27;4.18;;;;;;;11.91;72.95;96495.78;7397245;19;20058;-51
2024/03/31 20:56:00;;;;;;;12.60;3.55;;;;;;;11.80;73.63;96498.91;7397203;19;20001;-59
2024/03/31 20:58:28;;;;;;;14.68;3.88;;;;;;;11.60;74.10;96492.75;7397168;19;19999;-53
2024/03/31 21:01:05;;;;;;;14.50;3.38;;;;;;;11.72;73.44;96488.75;7397050;19;20006;-55
2024/03/31 21:03:38;;;;;;;14.20;3.50;;;;;;;11.90;72.52;96489.72;7393864;19;20013;-58
2024/03/31 21:06:17;;;;;;;18.67;4.22;;;;;;;12.59;69.63;96489.28;7396683;19;20035;-57
2024/03/31 21:08:44;;;;;;;20.25;3.92;;;;;;;11.91;72.33;96490.56;7396722;19;20469;-57
2024/03/31 21:11:16;;;;;;;11.45;3.22;;;;;;;11.73;73.53;96493.06;7396641;19;20003;-52
2024/03/31 21:13:45;;;;;;;10.55;3.80;;;;;;;11.50;74.07;96489.69;7395123;19;20020;-52
2024/03/31 21:16:14;;;;;;;11.10;3.75;;;;;;;11.33;75.54;96498.25;7396465;19;20066;-55
2024/03/31 21:18:45;;;;;;;16.13;3.70;;;;;;;11.41;75.20;96498.75;7396399;19;20524;-56
2024/03/31 21:21:22;;;;;;;13.52;4.18;;;;;;;11.31;75.76;96487.81;7396295;19;20482;-60
2024/03/31 21:23:49;;;;;;;14.75;3.58;;;;;;;11.31;76.42;96494.81;7395540;19;20006;-55
2024/03/31 21:26:15;;;;;;;14.15;3.85;;;;;;;11.18;76.63;96495.34;7394636;19;20005;-56
2024/03/31 21:28:41;;;;;;;20.83;3.60;;;;;;;11.26;76.87;96497.66;7396135;19;20003;-56
2024/03/31 21:31:07;;;;;;;19.60;3.92;;;;;;;11.24;77.60;96499.47;7396310;19;20078;-54
2024/03/31 21:33:36;;;;;;;16.13;3.75;;;;;;;11.02;79.78;96496.88;7395912;19;20013;-53
2024/03/31 21:36:03;;;;;;;15.55;3.70;;;;;;;11.08;79.32;96505.31;7395763;19;20007;-56
2024/03/31 21:38:28;;;;;;;11.23;3.53;;;;;;;10.89;79.06;96513.06;7395932;19;20007;-56
2024/03/31 21:41:21;;;;;;;12.55;3.65;;;;;;;11.06;79.39;96501.94;7395661;19;19994;-55
2024/03/31 21:43:48;;;;;;;9.32;3.08;;;;;;;10.95;79.63;96506.75;7394212;19;20003;-55
2024/03/31 21:46:14;;;;;;;11.25;3.72;;;;;;;10.84;78.75;96504.56;7395495;19;20066;-56
2024/03/31 21:48:41;;;;;;;14.25;3.30;;;;;;;10.73;80.67;96513.69;7395456;19;20013;-58
2024/03/31 21:51:09;;;;;;;20.17;3.85;;;;;;;10.78;78.49;96512.66;7395409;19;20002;-55
2024/03/31 21:53:35;;;;;;;16.75;3.45;;;;;;;10.73;80.16;96515.44;7395259;19;20002;-55
2024/03/31 21:56:02;;;;;;;21.40;3.97;;;;;;;11.11;78.63;96518.28;7395254;19;20009;-57
2024/03/31 21:58:30;;;;;;;14.10;4.10;;;;;;;10.99;79.46;96514.41;7395344;19;20002;-55
2024/03/31 22:01:12;;;;;;;13.10;3.97;;;;;;;10.69;80.39;96517.31;7395080;19;20490;-56
2024/03/31 22:03:44;;;;;;;18.08;4.57;;;;;;;10.57;80.77;96508.19;7393544;19;20017;-57
2024/03/31 22:06:18;;;;;;;13.07;3.83;;;;;;;10.57;80.53;96508.19;7395093;19;20007;-56
2024/03/31 22:08:44;;;;;;;15.38;4.35;;;;;;;10.45;81.68;96511.25;7394837;19;20331;-53
2024/03/31 22:11:10;;;;;;;17.55;3.42;;;;;;;10.41;81.57;96509.69;7394895;19;20002;-52
2024/03/31 22:13:37;;;;;;;20.27;4.63;;;;;;;10.76;79.70;96504.00;7394781;19;20017;-55
2024/03/31 22:16:04;;;;;;;18.48;4.28;;;;;;;10.68;80.40;96496.44;7394779;19;20016;-58
2024/03/31 22:18:30;;;;;;;20.77;4.07;;;;;;;10.65;80.99;96509.69;7394731;19;20003;-59
2024/03/31 22:20:58;;;;;;;13.43;3.60;;;;;;;10.62;81.16;96513.25;7394646;19;20003;-56
2024/03/31 22:23:24;;;;;;;22.58;4.30;;;;;;;10.60;80.66;96515.09;7393559;19;20015;-55
2024/03/31 22:25:51;;;;;;;14.38;3.63;;;;;;;10.58;80.86;96511.66;7400675;19;19999;-54
2024/03/31 22:28:16;;;;;;;12.73;3.70;;;;;;;10.64;80.73;96503.59;7401917;19;20090;-55
2024/03/31 22:30:42;;;;;;;14.23;3.28;;;;;;;10.61;80.28;96511.53;7401879;19;20003;-54
2024/03/31 22:33:08;;;;;;;10.65;3.47;;;;;;;10.60;80.36;96510.69;7401831;19;20006;-53
2024/03/31 22:35:33;;;;;;;18.17;4.75;;;;;;;10.56;81.01;96513.47;7401803;19;19999;-57
2024/03/31 22:37:59;;;;;;;16.08;3.50;;;;;;;10.63;80.02;96511.50;7402122;19;20321;-55
2024/03/31 22:40:24;;;;;;;17.75;4.22;;;;;;;10.48;82.66;96512.00;7401997;19;20472;-56
2024/03/31 22:42:50;;;;;;;17.38;3.75;;;;;;;10.33;82.68;96502.13;7400837;19;20467;-57
2024/03/31 22:45:16;;;;;;;12.15;3.63;;;;;;;10.43;81.99;96500.84;7401757;19;19995;-57
2024/03/31 22:47:42;;;;;;;29.15;7.57;;;;;;;10.40;81.19;96505.34;7401476;19;20015;-54
2024/03/31 22:50:07;;;;;;;20.25;3.92;;;;;;;10.34;81.40;96504.66;7401348;19;20070;-53
2024/03/31 22:52:33;;;;;;;14.13;3.78;;;;;;;10.31;81.75;96496.06;7401286;19;19999;-59
2024/03/31 22:54:59;;;;;;;15.00;3.72;;;;;;;10.24;82.37;96492.84;7401128;19;19999;-55
2024/03/31 22:57:24;;;;;;;39.00;22.83;;;;;;;10.35;81.38;96505.50;7400945;19;20005;-52
2024/03/31 22:59:50;;;;;;;17.23;3.97;;;;;;;10.26;81.73;96496.25;7401353;19;20074;-56
2024/03/31 23:02:15;;;;;;;13.38;3.53;;;;;;;10.23;82.54;96505.06;7400376;19;20002;-56
2024/03/31 23:04:41;;;;;;;16.48;4.00;;;;;;;10.33;81.84;96499.50;7398118;19;20007;-56
2024/03/31 23:07:07;;;;;;;24.13;3.88;;;;;;;10.39;81.68;96503.63;7401226;19;20003;-59
2024/03/31 23:09:32;;;;;;;15.63;3.85;;;;;;;10.27;82.49;96499.72;7400567;19;20107;-56
2024/03/31 23:11:58;;;;;;;13.65;3.55;;;;;;;10.33;82.44;96505.56;7400664;19;19999;-58
2024/03/31 23:14:23;;;;;;;18.58;3.95;;;;;;;10.51;80.70;96497.13;7400410;19;20353;-57
2024/03/31 23:16:49;;;;;;;16.17;3.60;;;;;;;10.30;82.05;96491.75;7400516;19;19998;-55
2024/03/31 23:19:16;;;;;;;14.50;4.30;;;;;;;9.99;83.20;96484.16;7400351;19;19998;-58
2024/03/31 23:21:41;;;;;;;17.77;5.32;;;;;;;10.17;82.75;96497.44;7400249;19;20003;-57
2024/03/31 23:24:07;;;;;;;56.33;14.93;;;;;;;10.29;82.73;96495.31;7398243;19;20006;-55
2024/03/31 23:26:34;;;;;;;11.35;3.70;;;;;;;10.21;82.15;96501.63;7400505;19;19998;-58
2024/03/31 23:29:00;;;;;;;9.48;2.80;;;;;;;10.05;82.88;96495.31;7399907;19;20352;-56
2024/03/31 23:31:25;;;;;;;15.98;3.72;;;;;;;9.94;84.29;96485.22;7399975;19;20055;-53
2024/03/31 23:33:51;;;;;;;16.30;4.10;;;;;;;9.67;85.98;96490.53;7399776;19;20007;-58
2024/03/31 23:36:19;;;;;;;18.95;4.10;;;;;;;9.75;85.07;96491.09;7398768;19;19991;-54
2024/03/31 23:38:46;;;;;;;16.60;3.65;;;;;;;9.68;85.04;96490.47;7399945;19;19994;-61
2024/03/31 23:41:12;;;;;;;18.75;3.60;;;;;;;9.97;83.89;96496.41;7400060;19;20010;-60
2024/03/31 23:43:38;;;;;;;17.25;4.03;;;;;;;10.36;81.66;96500.22;7398101;19;20352;-58
2024/03/31 23:46:03;;;;;;;15.60;3.30;;;;;;;10.06;82.41;96490.00;7399466;19;20788;-56
2024/03/31 23:48:29;;;;;;;13.95;4.05;;;;;;;9.84;83.14;96487.31;7397843;19;20032;-60
2024/03/31 23:50:54;;;;;;;44.33;4.80;;;;;;;9.71;83.90;96489.50;7399436;19;19995;-56
2024/03/31 23:53:20;;;;;;;20.83;3.50;;;;;;;9.55;85.81;96490.06;7399074;19;20038;-55
2024/03/31 23:55:46;;;;;;;13.02;3.38;;;;;;;9.42;86.55;96492.22;7397625;19;20064;-56
2024/03/31 23:58:11;;;;;;;14.63;3.25;;;;;;;9.78;84.58;96500.63;7399110;19;20006;-58
